CheckWX is a tool to help pilots better visualize weather data.  It is not intended as a substitute for an official pre-flight weather briefing.

13:20:23 UTC

KCGC METAR
Crystal River-Captain Tom Davis Field Airport
Crystal River, Florida, USA
Current

12 hours ago

KCGC 110115Z AUTO 00000KT 10SM SCT050 SCT070 BKN100 22/21 A3011 RMK AO2
Observed
Dec-11 @ 01:15 UTC
Visibility
10 SM
Flight Rules
VFR
Cloud Levels
  • Scattered at 5,000' AGL
  • Scattered at 7,000' AGL
  • Broken at 10,000' AGL
Temperature
22°C / 72°F
Dewpoint
21°C / 70°F
Humidity
94%
Altimeter
30.11" Hg
Pressure
1019.62 hPa
Previous

12 hours ago

KCGC 110055Z AUTO 00000KT 10SM SCT050 BKN070 22/21 A3010 RMK AO2
Observed
Dec-11 @ 00:55 UTC
Visibility
10 SM
Flight Rules
VFR
Cloud Levels
  • Scattered at 5,000' AGL
  • Broken at 7,000' AGL
Temperature
22°C / 72°F
Dewpoint
21°C / 70°F
Humidity
94%
Altimeter
30.1" Hg
Pressure
1019.32 hPa
Previous

13 hours ago

KCGC 110035Z AUTO 00000KT 10SM SCT050 BKN070 22/21 A3010 RMK AO2
Observed
Dec-11 @ 00:35 UTC
Visibility
10 SM
Flight Rules
VFR
Cloud Levels
  • Scattered at 5,000' AGL
  • Broken at 7,000' AGL
Temperature
22°C / 72°F
Dewpoint
21°C / 70°F
Humidity
94%
Altimeter
30.1" Hg
Pressure
1019.32 hPa